createdAt,value
2018-12-16T00:01:35.225Z,13.63
2018-12-16T00:04:03.523Z,12.40
2018-12-16T00:06:31.652Z,14.10
2018-12-16T00:08:59.877Z,14.00
2018-12-16T00:11:28.018Z,13.47
2018-12-16T00:13:56.185Z,14.50
2018-12-16T00:16:24.460Z,13.60
2018-12-16T00:18:52.698Z,13.17
2018-12-16T00:21:20.845Z,13.33
2018-12-16T00:23:48.985Z,13.83
2018-12-16T00:26:17.143Z,14.17
2018-12-16T00:28:45.378Z,13.33
2018-12-16T00:31:13.674Z,14.67
2018-12-16T00:33:41.809Z,13.57
2018-12-16T00:36:10.029Z,13.83
2018-12-16T00:38:38.218Z,14.97
2018-12-16T00:41:06.377Z,13.83
2018-12-16T00:43:34.590Z,15.07
2018-12-16T00:46:02.755Z,13.90
2018-12-16T00:48:30.961Z,15.07
2018-12-16T00:50:59.193Z,15.30
2018-12-16T00:53:27.397Z,15.20
2018-12-16T00:55:55.550Z,15.13
2018-12-16T00:58:23.761Z,15.23
2018-12-16T01:00:51.994Z,14.53
2018-12-16T01:03:20.202Z,15.87
2018-12-16T01:05:48.374Z,15.80
2018-12-16T01:08:16.586Z,15.90
2018-12-16T01:10:44.881Z,16.40
2018-12-16T01:13:13.097Z,15.47
2018-12-16T01:15:41.241Z,16.13
2018-12-16T01:18:09.459Z,15.60
2018-12-16T01:20:37.757Z,15.70
2018-12-16T01:23:05.981Z,16.40
2018-12-16T01:25:34.203Z,15.97
2018-12-16T01:28:02.511Z,16.77
2018-12-16T01:30:30.746Z,15.90
2018-12-16T01:32:58.983Z,16.33
2018-12-16T01:35:27.114Z,15.90
2018-12-16T01:37:55.348Z,16.23
2018-12-16T01:40:23.574Z,16.80
2018-12-16T01:42:51.713Z,16.67
2018-12-16T01:45:19.996Z,15.77
2018-12-16T01:47:48.144Z,16.63
2018-12-16T01:50:16.342Z,16.17
2018-12-16T01:52:50.140Z,17.60
2018-12-16T01:55:14.868Z,15.70
2018-12-16T01:57:43.097Z,15.97
2018-12-16T02:00:11.405Z,16.63
2018-12-16T02:02:39.549Z,16.00
2018-12-16T02:05:07.845Z,16.90
2018-12-16T02:07:36.068Z,17.87
2018-12-16T02:10:04.981Z,15.70
2018-12-16T02:12:33.213Z,16.93
2018-12-16T02:15:01.365Z,16.73
2018-12-16T02:17:29.665Z,15.93
2018-12-16T02:19:57.877Z,17.23
2018-12-16T02:22:26.046Z,17.00
2018-12-16T02:24:54.257Z,16.70
2018-12-16T02:27:22.501Z,16.73
2018-12-16T02:29:50.704Z,16.97
2018-12-16T02:32:18.841Z,16.33
2018-12-16T02:34:47.046Z,17.60
2018-12-16T02:37:15.294Z,16.87
2018-12-16T02:39:43.442Z,17.43
2018-12-16T02:42:11.657Z,17.53
2018-12-16T02:44:39.867Z,17.60
2018-12-16T02:47:08.090Z,17.43
2018-12-16T02:49:37.394Z,17.07
2018-12-16T02:52:05.597Z,17.37
2018-12-16T02:54:33.753Z,16.90
2018-12-16T02:57:01.967Z,16.00
2018-12-16T02:59:30.174Z,16.23
2018-12-16T03:01:58.397Z,15.70
2018-12-16T03:04:27.397Z,15.97
2018-12-16T03:06:55.613Z,16.27
2018-12-16T03:09:23.819Z,15.37
2018-12-16T03:11:51.965Z,16.60
2018-12-16T03:14:20.125Z,17.13
2018-12-16T03:16:48.368Z,15.90
2018-12-16T03:19:16.505Z,17.20
2018-12-16T03:21:44.798Z,17.10
2018-12-16T03:24:12.947Z,16.50
2018-12-16T03:26:41.082Z,16.60
2018-12-16T03:29:09.369Z,16.30
2018-12-16T03:31:37.508Z,15.30
2018-12-16T03:34:05.878Z,16.63
2018-12-16T03:36:34.015Z,15.10
2018-12-16T03:39:02.237Z,15.63
2018-12-16T03:41:30.459Z,15.67
2018-12-16T03:43:58.678Z,15.30
2018-12-16T03:46:26.906Z,16.70
2018-12-16T03:48:55.062Z,15.53
2018-12-16T03:51:23.193Z,15.13
2018-12-16T03:53:51.333Z,14.93
2018-12-16T03:56:19.469Z,15.00
2018-12-16T03:58:59.056Z,16.10
2018-12-16T04:01:27.266Z,15.53
2018-12-16T04:03:55.427Z,14.63
2018-12-16T04:06:23.629Z,14.77
2018-12-16T04:08:51.849Z,16.13
2018-12-16T04:11:19.989Z,15.90
2018-12-16T04:13:48.154Z,15.77
2018-12-16T04:16:16.341Z,15.80
2018-12-16T04:18:44.590Z,15.23
2018-12-16T04:21:12.731Z,15.23
2018-12-16T04:23:40.894Z,16.80
2018-12-16T04:26:09.060Z,15.50
2018-12-16T04:28:37.262Z,16.33
2018-12-16T04:31:05.507Z,15.03
2018-12-16T04:33:33.732Z,15.50
2018-12-16T04:36:02.106Z,16.00
2018-12-16T04:38:30.256Z,14.10
2018-12-16T04:40:58.476Z,13.90
2018-12-16T04:43:26.718Z,13.23
2018-12-16T04:45:54.853Z,14.37
2018-12-16T04:48:23.060Z,14.23
2018-12-16T04:50:51.270Z,15.27
2018-12-16T04:53:19.474Z,15.13
2018-12-16T04:55:47.605Z,15.23
2018-12-16T04:58:15.749Z,15.00
2018-12-16T05:00:43.953Z,14.97
2018-12-16T05:03:12.088Z,14.27
2018-12-16T05:05:40.220Z,13.23
2018-12-16T05:08:08.496Z,12.40
2018-12-16T05:10:36.757Z,13.07
2018-12-16T05:13:04.917Z,13.00
2018-12-16T05:15:33.084Z,15.10
2018-12-16T05:18:01.226Z,12.40
2018-12-16T05:20:29.342Z,12.90
2018-12-16T05:22:57.566Z,13.10
2018-12-16T05:25:25.789Z,12.63
2018-12-16T05:27:53.932Z,12.50
2018-12-16T05:30:22.138Z,13.10
2018-12-16T05:32:50.272Z,11.43
2018-12-16T05:35:18.472Z,11.47
2018-12-16T05:37:46.682Z,12.20
2018-12-16T05:40:14.821Z,11.97
2018-12-16T05:42:42.963Z,12.83
2018-12-16T05:45:11.197Z,11.90
2018-12-16T05:47:39.327Z,12.00
2018-12-16T05:50:07.984Z,10.57
2018-12-16T05:52:36.122Z,11.37
2018-12-16T05:55:05.018Z,11.07
2018-12-16T05:57:33.157Z,11.70
2018-12-16T06:00:01.305Z,11.93
2018-12-16T06:02:29.507Z,11.37
2018-12-16T06:04:57.656Z,10.93
2018-12-16T06:07:25.778Z,11.43
2018-12-16T06:09:53.987Z,11.63
2018-12-16T06:12:22.194Z,11.37
2018-12-16T06:14:50.404Z,11.40
2018-12-16T06:17:18.624Z,10.00
2018-12-16T06:19:46.781Z,10.43
2018-12-16T06:22:14.909Z,11.20
2018-12-16T06:24:43.121Z,10.57
2018-12-16T06:27:11.397Z,10.97
2018-12-16T06:29:40.910Z,10.50
2018-12-16T06:32:09.111Z,10.23
2018-12-16T06:34:37.329Z,9.83
2018-12-16T06:37:05.469Z,10.57
2018-12-16T06:39:33.623Z,10.67
2018-12-16T06:42:01.762Z,11.13
2018-12-16T06:44:29.985Z,10.90
2018-12-16T06:46:58.132Z,10.83
2018-12-16T06:49:26.406Z,10.33
2018-12-16T06:51:54.534Z,10.73
2018-12-16T06:54:23.865Z,10.27
2018-12-16T06:56:51.994Z,10.77
2018-12-16T06:59:20.151Z,10.27
2018-12-16T07:01:48.364Z,10.97
2018-12-16T07:04:16.559Z,10.97
2018-12-16T07:06:44.807Z,11.07
2018-12-16T07:09:13.021Z,10.60
2018-12-16T07:11:41.241Z,10.73
2018-12-16T07:14:09.565Z,10.67
2018-12-16T07:16:37.781Z,10.30
2018-12-16T07:19:06.009Z,10.27
2018-12-16T07:21:34.322Z,9.63
2018-12-16T07:24:08.985Z,10.73
2018-12-16T07:26:32.688Z,10.27
2018-12-16T07:29:00.887Z,10.23
2018-12-16T07:31:29.194Z,10.40
2018-12-16T07:33:57.334Z,11.83
2018-12-16T07:36:25.496Z,11.13
2018-12-16T07:38:53.792Z,11.43
2018-12-16T07:41:21.994Z,10.43
2018-12-16T07:43:50.215Z,12.33
2018-12-16T07:46:18.652Z,11.30
2018-12-16T07:48:47.175Z,11.10
2018-12-16T07:51:15.651Z,11.50
2018-12-16T07:53:43.926Z,11.10
2018-12-16T07:56:12.077Z,11.30
2018-12-16T07:58:40.303Z,11.33
2018-12-16T08:01:08.626Z,11.80
2018-12-16T08:03:36.841Z,11.93
2018-12-16T08:06:05.161Z,12.63
2018-12-16T08:08:33.452Z,11.87
2018-12-16T08:11:01.689Z,11.53
2018-12-16T08:13:29.910Z,11.00
2018-12-16T08:15:58.064Z,11.13
2018-12-16T08:18:26.200Z,12.27
2018-12-16T08:20:54.352Z,12.40
2018-12-16T08:23:22.502Z,12.00
2018-12-16T08:25:50.640Z,11.20
2018-12-16T08:28:18.930Z,12.47
2018-12-16T08:30:47.068Z,12.40
2018-12-16T08:33:15.199Z,11.10
2018-12-16T08:35:43.343Z,11.67
2018-12-16T08:38:11.785Z,10.90
2018-12-16T08:40:40.125Z,12.13
2018-12-16T08:43:08.424Z,12.40
2018-12-16T08:45:36.631Z,11.37
2018-12-16T08:48:04.833Z,11.33
2018-12-16T08:50:33.051Z,11.43
2018-12-16T08:53:01.221Z,11.60
2018-12-16T08:55:29.506Z,12.37
2018-12-16T08:57:57.629Z,12.23
2018-12-16T09:00:25.770Z,11.40
2018-12-16T09:02:53.891Z,12.27
2018-12-16T09:05:22.114Z,12.10
2018-12-16T09:07:50.388Z,12.47
2018-12-16T09:10:18.634Z,11.93
2018-12-16T09:12:46.801Z,11.83
2018-12-16T09:15:14.943Z,12.03
2018-12-16T09:17:43.162Z,12.63
2018-12-16T09:20:11.453Z,12.70
2018-12-16T09:22:40.123Z,12.67
2018-12-16T09:25:08.437Z,12.50
2018-12-16T09:27:36.703Z,12.17
2018-12-16T09:30:07.756Z,11.90
2018-12-16T09:32:35.975Z,12.47
2018-12-16T09:35:04.345Z,12.50
2018-12-16T09:37:32.549Z,11.77
2018-12-16T09:40:00.673Z,12.17
2018-12-16T09:42:30.948Z,13.30
2018-12-16T09:45:00.984Z,12.93
2018-12-16T09:47:30.807Z,12.63
2018-12-16T09:50:00.637Z,11.90
2018-12-16T09:52:30.309Z,12.13
2018-12-16T09:54:59.967Z,14.70
2018-12-16T09:57:29.772Z,13.80
2018-12-16T09:59:59.772Z,13.20
2018-12-16T10:02:28.490Z,13.10
2018-12-16T10:04:58.351Z,14.07
2018-12-16T10:07:28.180Z,13.17
2018-12-16T10:09:57.252Z,13.30
2018-12-16T11:12:42.916Z,18.00
2018-12-16T11:15:12.693Z,17.20
2018-12-16T11:18:44.066Z,17.20
2018-12-16T11:35:54.423Z,18.03
2018-12-16T11:38:22.670Z,19.23
2018-12-16T11:40:50.954Z,18.30
2018-12-16T11:43:19.217Z,19.00
2018-12-16T11:45:47.353Z,18.63
2018-12-16T11:48:15.641Z,18.57
2018-12-16T11:50:43.937Z,19.70
2018-12-16T11:53:12.181Z,19.10
2018-12-16T11:55:40.625Z,19.43
2018-12-16T11:58:08.803Z,20.37
2018-12-16T12:00:37.004Z,19.67
2018-12-16T12:03:05.162Z,18.80
2018-12-16T12:05:33.289Z,18.67
2018-12-16T12:08:01.446Z,18.93
2018-12-16T12:10:29.741Z,19.73
2018-12-16T12:12:57.904Z,19.27
2018-12-16T12:15:26.113Z,18.13
2018-12-16T12:17:54.283Z,17.07
2018-12-16T12:20:22.456Z,19.47
2018-12-16T12:22:50.690Z,18.93
2018-12-16T12:25:20.035Z,18.63
2018-12-16T12:27:48.508Z,17.67
2018-12-16T12:30:16.758Z,18.83
2018-12-16T12:32:48.986Z,18.53
2018-12-16T12:35:15.417Z,18.90
2018-12-16T12:37:43.575Z,18.27
2018-12-16T12:40:11.809Z,19.10
2018-12-16T12:42:40.022Z,18.43
2018-12-16T12:45:08.370Z,18.00
2018-12-16T12:47:36.547Z,19.40
2018-12-16T12:50:05.694Z,18.67
2018-12-16T12:52:33.855Z,17.63
2018-12-16T12:55:02.017Z,18.73
2018-12-16T12:57:30.218Z,18.93
2018-12-16T12:59:58.780Z,18.93
2018-12-16T13:02:26.990Z,17.80
2018-12-16T13:04:55.153Z,17.70
2018-12-16T13:07:23.316Z,17.53
2018-12-16T13:09:51.498Z,18.30
2018-12-16T13:12:19.702Z,18.83
2018-12-16T13:14:47.953Z,18.50
2018-12-16T13:17:16.109Z,18.03
2018-12-16T13:19:44.274Z,17.87
2018-12-16T13:22:12.486Z,19.63
2018-12-16T13:24:51.938Z,19.07
2018-12-16T13:27:20.088Z,18.50
2018-12-16T13:29:48.338Z,18.40
2018-12-16T13:32:16.475Z,18.10
2018-12-16T13:34:45.373Z,17.90
2018-12-16T13:37:13.519Z,18.87
2018-12-16T13:39:41.713Z,17.87
2018-12-16T13:42:09.892Z,19.30
2018-12-16T13:44:38.021Z,18.50
2018-12-16T13:47:06.208Z,18.73
2018-12-16T13:49:34.437Z,18.50
2018-12-16T13:52:02.740Z,19.27
2018-12-16T13:54:30.949Z,19.17
2018-12-16T13:56:59.118Z,18.77
2018-12-16T13:59:27.264Z,19.27
2018-12-16T14:01:55.469Z,18.07
2018-12-16T14:04:23.624Z,19.40
2018-12-16T14:06:51.841Z,19.03
2018-12-16T14:09:20.076Z,19.53
2018-12-16T14:11:48.373Z,19.43
2018-12-16T14:14:16.530Z,18.77
2018-12-16T14:16:44.707Z,19.23
2018-12-16T14:19:13.005Z,19.23
2018-12-16T14:21:41.186Z,18.77
2018-12-16T14:24:11.582Z,18.40
2018-12-16T14:26:39.830Z,19.33
2018-12-16T14:29:10.037Z,19.73
2018-12-16T14:31:38.325Z,19.00
2018-12-16T14:34:06.472Z,19.37
2018-12-16T14:36:34.644Z,18.97
2018-12-16T14:39:03.550Z,19.30
2018-12-16T14:41:31.773Z,18.90
2018-12-16T14:43:59.926Z,18.30
2018-12-16T14:46:28.142Z,20.83
2018-12-16T14:48:56.305Z,18.90
2018-12-16T14:51:24.471Z,19.67
2018-12-16T14:53:52.682Z,19.60
2018-12-16T14:56:20.822Z,20.33
2018-12-16T14:58:48.954Z,18.30
2018-12-16T15:01:17.202Z,19.83
2018-12-16T15:03:45.403Z,20.70
2018-12-16T15:06:15.088Z,20.20
2018-12-16T15:08:43.291Z,20.00
2018-12-16T15:11:11.615Z,19.83
2018-12-16T15:13:39.845Z,18.83
2018-12-16T15:16:08.003Z,20.17
2018-12-16T15:18:36.130Z,19.63
2018-12-16T15:21:04.345Z,18.43
2018-12-16T15:23:32.494Z,19.00
2018-12-16T15:26:02.189Z,19.63
2018-12-16T15:28:30.612Z,18.70
2018-12-16T15:30:58.766Z,19.27
2018-12-16T15:33:30.321Z,20.70
2018-12-16T15:35:58.591Z,20.53
2018-12-16T15:38:27.914Z,19.27
2018-12-16T15:40:56.170Z,20.20
2018-12-16T15:43:26.437Z,21.23
2018-12-16T15:45:55.737Z,20.13
2018-12-16T15:48:25.018Z,20.30
2018-12-16T15:50:58.202Z,20.50
2018-12-16T15:53:27.393Z,18.47
2018-12-16T15:55:55.672Z,19.70
2018-12-16T15:58:23.809Z,19.57
2018-12-16T16:00:52.138Z,19.63
2018-12-16T16:03:20.294Z,20.17
2018-12-16T16:05:48.461Z,19.60
2018-12-16T16:08:16.711Z,22.10
2018-12-16T16:10:45.041Z,21.27
2018-12-16T16:13:13.308Z,21.40
2018-12-16T16:15:41.567Z,21.53
2018-12-16T16:18:09.774Z,21.40
2018-12-16T16:20:38.008Z,20.30
2018-12-16T16:23:06.886Z,18.93
2018-12-16T16:25:35.985Z,20.60
2018-12-16T16:28:04.276Z,20.73
2018-12-16T16:30:32.562Z,21.13
2018-12-16T16:33:00.712Z,20.57
2018-12-16T16:35:28.861Z,20.13
2018-12-16T16:38:00.883Z,19.37
2018-12-16T16:40:28.054Z,19.73
2018-12-16T16:42:56.375Z,19.83
2018-12-16T16:45:24.703Z,20.97
2018-12-16T16:47:52.928Z,20.10
2018-12-16T16:50:21.258Z,20.73
2018-12-16T16:52:49.537Z,20.80
2018-12-16T16:55:18.742Z,21.20
2018-12-16T16:57:46.972Z,20.93
2018-12-16T17:00:16.439Z,20.63
2018-12-16T17:02:44.768Z,20.60
2018-12-16T17:05:13.068Z,19.53
2018-12-16T17:07:41.358Z,18.77
2018-12-16T17:10:09.621Z,19.27
2018-12-16T17:12:37.944Z,20.43
2018-12-16T17:15:07.319Z,20.20
2018-12-16T17:17:35.662Z,20.60
2018-12-16T17:20:04.821Z,19.93
2018-12-16T17:22:34.086Z,20.87
2018-12-16T17:25:02.425Z,21.20
2018-12-16T17:27:30.713Z,20.73
2018-12-16T17:29:58.924Z,20.60
2018-12-16T17:32:27.501Z,20.93
2018-12-16T17:34:57.487Z,21.03
2018-12-16T17:37:25.778Z,20.43
2018-12-16T17:39:56.077Z,21.20
2018-12-16T17:42:25.070Z,19.47
2018-12-16T17:44:57.756Z,20.23
2018-12-16T17:47:26.966Z,21.53
2018-12-16T17:49:55.809Z,20.67
2018-12-16T17:52:25.156Z,21.50
2018-12-16T17:54:54.021Z,21.67
2018-12-16T17:57:22.736Z,22.73
2018-12-16T17:59:51.881Z,22.50
2018-12-16T18:02:20.471Z,21.43
2018-12-16T18:04:50.469Z,21.73
2018-12-16T18:07:26.313Z,21.77
2018-12-16T18:09:58.483Z,22.43
2018-12-16T18:12:27.823Z,22.27
2018-12-16T18:14:57.220Z,21.87
2018-12-16T18:17:26.145Z,21.80
2018-12-16T18:19:55.785Z,20.17
2018-12-16T18:22:24.473Z,22.23
2018-12-16T18:24:57.244Z,21.50
2018-12-16T18:27:26.798Z,21.97
2018-12-16T18:29:56.146Z,21.97
2018-12-16T18:32:25.655Z,22.20
2018-12-16T18:34:55.237Z,22.27
2018-12-16T18:37:23.699Z,22.43
2018-12-16T18:39:53.117Z,23.00
2018-12-16T18:42:21.565Z,22.53
2018-12-16T18:44:50.730Z,22.43
2018-12-16T18:47:20.149Z,24.33
2018-12-16T18:49:49.521Z,22.50
2018-12-16T18:52:21.182Z,22.30
2018-12-16T18:54:49.496Z,23.87
2018-12-16T18:57:18.965Z,23.63
2018-12-16T18:59:48.193Z,23.60
2018-12-16T19:02:16.370Z,25.63
2018-12-16T19:04:46.103Z,24.53
2018-12-16T19:10:09.446Z,25.67
2018-12-16T19:12:39.818Z,27.07
2018-12-16T19:15:10.428Z,27.20
2018-12-16T19:17:39.767Z,26.50
2018-12-16T19:20:08.144Z,25.47
2018-12-16T19:22:37.515Z,25.93
2018-12-16T19:25:06.114Z,27.17
2018-12-16T19:27:35.481Z,26.03
2018-12-16T19:30:06.806Z,25.77
2018-12-16T19:32:35.214Z,27.00
2018-12-16T19:35:03.729Z,26.50
2018-12-16T19:37:33.165Z,26.63
2018-12-16T19:40:01.453Z,27.03
2018-12-16T19:42:29.737Z,27.53
2018-12-16T19:44:57.997Z,26.80
2018-12-16T19:47:26.260Z,29.07
2018-12-16T19:49:55.589Z,27.13
2018-12-16T19:52:24.054Z,26.60
2018-12-16T19:54:54.008Z,28.93
2018-12-16T19:57:22.350Z,28.43
2018-12-16T19:59:50.606Z,28.27
2018-12-16T20:02:19.065Z,28.27
2018-12-16T20:04:51.789Z,28.13
2018-12-16T20:07:20.261Z,28.57
2018-12-16T20:09:53.137Z,29.83
2018-12-16T20:12:24.965Z,28.10
2018-12-16T20:14:54.293Z,28.43
2018-12-16T20:17:26.307Z,27.70
2018-12-16T20:19:54.482Z,28.23
2018-12-16T20:22:22.870Z,28.37
2018-12-16T20:24:52.280Z,27.70
2018-12-16T20:27:20.545Z,29.43
2018-12-16T20:29:48.789Z,28.53
2018-12-16T20:32:17.125Z,29.33
2018-12-16T20:34:45.373Z,29.57
2018-12-16T20:37:19.753Z,27.47
2018-12-16T20:39:48.038Z,29.67
2018-12-16T20:42:16.418Z,29.27
2018-12-16T20:44:45.655Z,29.07
2018-12-16T20:47:16.405Z,28.63
2018-12-16T20:49:50.869Z,29.40
2018-12-16T20:52:28.260Z,30.80
2018-12-16T20:54:59.628Z,29.10
2018-12-16T20:57:30.608Z,27.77
2018-12-16T21:00:04.631Z,27.37
2018-12-16T21:02:37.956Z,26.07
2018-12-16T21:05:12.004Z,25.33
2018-12-16T21:07:42.991Z,26.40
2018-12-16T21:10:11.790Z,26.27
2018-12-16T21:12:45.932Z,28.13
2018-12-16T21:17:25.746Z,25.20
2018-12-16T21:19:54.600Z,26.90
2018-12-16T21:22:24.724Z,26.40
2018-12-16T21:24:56.435Z,27.17
2018-12-16T21:27:26.126Z,27.60
2018-12-16T21:29:55.418Z,26.97
2018-12-16T21:32:26.303Z,29.83
2018-12-16T21:34:57.687Z,29.37
2018-12-16T21:37:26.592Z,29.33
2018-12-16T21:39:55.644Z,29.13
2018-12-16T21:42:24.502Z,30.77
2018-12-16T21:44:55.634Z,30.70
2018-12-16T21:47:26.461Z,29.67
2018-12-16T21:49:57.562Z,31.27
2018-12-16T21:52:27.365Z,30.67
2018-12-16T21:54:56.579Z,31.03
2018-12-16T21:57:25.412Z,31.20
2018-12-16T21:59:56.238Z,30.80
2018-12-16T22:02:24.928Z,32.37
2018-12-16T22:04:53.719Z,33.20
2018-12-16T22:07:23.032Z,34.47
2018-12-16T22:09:53.866Z,34.53
2018-12-16T22:12:22.802Z,33.60
2018-12-16T22:14:53.499Z,35.77
2018-12-16T22:17:22.062Z,36.67
2018-12-16T22:19:52.077Z,36.03
2018-12-16T22:22:20.978Z,35.50
2018-12-16T22:24:50.975Z,34.83
2018-12-16T22:27:20.030Z,36.40
2018-12-16T22:29:48.829Z,35.67
2018-12-16T22:32:18.645Z,35.93
2018-12-16T22:34:49.457Z,35.07
2018-12-16T22:37:18.597Z,35.10
2018-12-16T22:39:49.645Z,37.00
2018-12-16T22:42:22.986Z,38.20
2018-12-16T22:44:51.731Z,37.03
2018-12-16T22:47:20.415Z,36.17
2018-12-16T22:49:49.313Z,37.93
2018-12-16T22:52:18.686Z,36.20
2018-12-16T22:54:47.529Z,38.23
2018-12-16T22:57:16.282Z,37.70
2018-12-16T22:59:44.910Z,36.07
2018-12-16T23:02:13.658Z,36.83
2018-12-16T23:04:42.736Z,36.73
2018-12-16T23:07:11.391Z,37.13
2018-12-16T23:09:40.097Z,37.03
2018-12-16T23:12:08.774Z,38.07
2018-12-16T23:14:37.472Z,38.90
2018-12-16T23:17:06.387Z,37.50
2018-12-16T23:19:35.291Z,36.60
2018-12-16T23:22:04.275Z,35.93
2018-12-16T23:24:33.431Z,36.87
2018-12-16T23:27:02.173Z,37.07
2018-12-16T23:29:30.922Z,37.83
2018-12-16T23:31:59.919Z,37.63
2018-12-16T23:34:28.758Z,37.30
2018-12-16T23:36:57.453Z,37.40
2018-12-16T23:39:26.353Z,37.30
2018-12-16T23:41:55.178Z,37.97
2018-12-16T23:44:25.209Z,38.30
2018-12-16T23:46:53.949Z,37.40
2018-12-16T23:49:22.539Z,39.37
2018-12-16T23:51:51.223Z,37.30
2018-12-16T23:54:20.074Z,35.83
2018-12-16T23:56:48.768Z,38.27
2018-12-16T23:59:18.235Z,36.63
